Time;durP1;ratioP1;P1;durP2;ratioP2;P2;SDS_P1;SDS_P2;PMS_P1;PMS_P2;Temp;Humidity;BMP_temperature;BMP_pressure;BME280_temperature;BME280_humidity;BME280_pressure;Samples;Min_cycle;Max_cycle;Signal;HPM_P1;HPM_P2
2021/11/07 00:02:40;;;;;;;21.70;13.05;;;;;;;4.73;65.35;98437.78;10517377;28;20052;-76
2021/11/07 00:08:13;;;;;;;20.50;12.70;;;;;;;4.69;66.03;98431.81;10507709;28;20042;-76
2021/11/07 00:13:35;;;;;;;22.25;14.25;;;;;;;4.66;65.19;98427.38;10505122;28;20044;-75
2021/11/07 00:19:06;;;;;;;18.00;12.43;;;;;;;4.66;66.06;98443.97;10513987;28;20134;-77
2021/11/07 00:24:36;;;;;;;20.65;13.07;;;;;;;4.64;65.60;98434.72;10503992;28;20051;-76
2021/11/07 01:03:03;;;;;;;24.30;15.88;;;;;;;4.39;66.78;98390.06;10504459;28;20060;-75
2021/11/07 01:08:24;;;;;;;24.33;17.13;;;;;;;4.35;67.01;98392.41;10499239;28;20040;-76
2021/11/07 01:13:46;;;;;;;25.45;16.38;;;;;;;4.27;67.41;98395.84;10497868;28;20496;-76
2021/11/07 01:19:07;;;;;;;26.08;17.08;;;;;;;4.17;68.16;98394.81;10511223;28;20394;-75
2021/11/07 01:24:37;;;;;;;26.27;16.70;;;;;;;4.17;67.75;98375.47;10525548;28;20367;-76
2021/11/07 01:30:01;;;;;;;26.05;16.45;;;;;;;4.12;67.55;98368.03;10499689;28;20044;-76
2021/11/07 01:35:28;;;;;;;24.52;15.75;;;;;;;4.01;68.06;98335.13;10498251;28;20044;-76
2021/11/07 01:46:32;;;;;;;24.60;15.93;;;;;;;3.85;68.44;98314.13;10501835;28;20067;-76
2021/11/07 01:52:00;;;;;;;24.50;15.02;;;;;;;3.75;68.18;98316.59;10483888;28;20032;-77
2021/11/07 01:57:32;;;;;;;26.85;16.52;;;;;;;3.68;68.85;98297.94;10499636;28;20051;-75
2021/11/07 02:02:55;;;;;;;28.40;16.48;;;;;;;3.55;68.37;98260.03;10511465;28;20091;-76
2021/11/07 02:08:21;;;;;;;26.75;17.48;;;;;;;3.46;69.06;98241.16;10510262;28;20043;-76
2021/11/07 02:13:43;;;;;;;27.30;16.92;;;;;;;3.44;68.96;98247.22;10497417;28;20047;-76
2021/11/07 02:19:05;;;;;;;27.35;16.60;;;;;;;3.37;68.74;98258.16;10524460;28;20575;-76
2021/11/07 02:24:28;;;;;;;22.30;14.50;;;;;;;3.42;69.64;98257.31;10496170;28;20490;-76
2021/11/07 02:29:51;;;;;;;25.05;16.05;;;;;;;3.41;69.37;98240.03;10496600;28;20482;-75
2021/11/07 02:35:12;;;;;;;23.02;14.85;;;;;;;3.39;70.06;98248.09;10495995;28;20074;-76
2021/11/07 02:40:33;;;;;;;22.77;15.35;;;;;;;3.37;70.01;98241.63;10496093;28;20044;-77
2021/11/07 02:45:54;;;;;;;27.90;15.60;;;;;;;3.38;70.13;98227.31;10516189;28;20044;-75
2021/11/07 02:51:16;;;;;;;20.48;13.88;;;;;;;3.42;69.86;98219.44;10517453;28;20066;-76
2021/11/07 02:56:38;;;;;;;22.65;14.88;;;;;;;3.51;70.39;98203.69;10517416;28;20039;-76
2021/11/07 03:01:59;;;;;;;20.90;13.93;;;;;;;3.65;70.00;98191.31;10516923;28;20063;-76
2021/11/07 03:07:21;;;;;;;22.58;14.43;;;;;;;3.69;69.25;98172.41;10515771;28;20032;-76
2021/11/07 03:12:43;;;;;;;20.67;14.20;;;;;;;3.79;69.73;98164.41;10483065;28;20042;-77
2021/11/07 03:18:05;;;;;;;21.40;13.82;;;;;;;3.85;69.38;98157.44;10480720;28;20088;-75
2021/11/07 03:23:27;;;;;;;20.02;12.80;;;;;;;3.89;69.43;98143.31;10520864;28;20506;-76
2021/11/07 03:28:50;;;;;;;20.85;14.50;;;;;;;4.00;68.91;98146.53;10513533;28;20165;-77
2021/11/07 03:34:18;;;;;;;21.75;13.80;;;;;;;3.92;69.21;98147.75;10510309;28;20047;-77
2021/11/07 03:39:39;;;;;;;22.35;13.98;;;;;;;3.99;69.38;98147.06;10525242;28;20047;-76
2021/11/07 03:45:01;;;;;;;22.92;13.48;;;;;;;3.93;69.05;98147.22;10519328;28;20040;-75
2021/11/07 03:50:25;;;;;;;18.83;12.70;;;;;;;3.95;69.58;98143.91;10519091;28;20550;-76
2021/11/07 03:55:47;;;;;;;21.42;13.38;;;;;;;3.95;69.32;98152.19;10521958;28;20500;-75
2021/11/07 04:01:09;;;;;;;21.20;12.70;;;;;;;4.00;68.80;98148.56;10501253;28;20476;-76
2021/11/07 04:06:30;;;;;;;19.80;13.35;;;;;;;4.02;69.61;98140.47;10500775;28;20054;-75
2021/11/07 04:11:52;;;;;;;19.45;12.98;;;;;;;4.02;69.41;98123.88;10514865;28;20499;-76
2021/11/07 04:17:13;;;;;;;19.35;13.15;;;;;;;4.11;69.54;98114.38;10500311;28;20048;-77
2021/11/07 04:22:35;;;;;;;18.90;12.60;;;;;;;4.15;69.35;98118.28;10500428;28;20047;-76
2021/11/07 04:27:56;;;;;;;18.92;12.88;;;;;;;4.19;69.41;98107.63;10499995;28;20040;-76
2021/11/07 04:33:18;;;;;;;17.65;11.38;;;;;;;4.25;69.22;98077.81;10513638;28;20089;-77
2021/11/07 04:38:39;;;;;;;21.65;12.98;;;;;;;4.30;69.08;98071.38;10513770;28;20092;-77
2021/11/07 04:44:01;;;;;;;17.35;12.05;;;;;;;4.42;69.02;98055.22;10513420;28;20050;-75
2021/11/07 04:49:22;;;;;;;17.17;12.00;;;;;;;4.54;68.66;98047.38;10498985;28;20043;-75
2021/11/07 04:54:43;;;;;;;16.45;11.48;;;;;;;4.65;68.39;98036.00;10512920;28;20044;-77
2021/11/07 05:00:05;;;;;;;21.73;12.90;;;;;;;4.71;67.92;98042.06;10496865;28;20052;-75
2021/11/07 05:05:27;;;;;;;18.00;12.38;;;;;;;4.71;68.34;98030.28;10510889;28;20478;-77
2021/11/07 05:10:48;;;;;;;16.50;11.77;;;;;;;4.68;68.54;98028.63;10497021;28;20093;-76
2021/11/07 05:16:10;;;;;;;19.40;13.55;;;;;;;4.77;68.29;98026.06;10494623;28;20071;-75
2021/11/07 05:21:31;;;;;;;17.25;12.05;;;;;;;4.71;68.57;98013.69;10511671;28;20036;-76
2021/11/07 05:26:52;;;;;;;19.58;13.52;;;;;;;4.72;68.56;98007.59;10512264;28;20043;-77
2021/11/07 05:32:13;;;;;;;18.33;12.68;;;;;;;4.84;68.20;98025.34;10512290;28;20158;-75
2021/11/07 05:37:35;;;;;;;16.88;12.82;;;;;;;4.91;68.49;98021.09;10511819;28;20402;-75
2021/11/07 05:42:56;;;;;;;16.70;12.25;;;;;;;4.92;68.38;98028.13;10511288;28;20475;-77
2021/11/07 05:48:18;;;;;;;21.55;13.85;;;;;;;4.96;67.70;98019.47;10511705;28;20402;-76
2021/11/07 05:53:39;;;;;;;18.50;13.32;;;;;;;5.00;67.77;98003.97;10511970;28;20446;-76
2021/11/07 05:59:01;;;;;;;18.58;13.25;;;;;;;4.96;67.72;98003.63;10511725;28;20040;-77
2021/11/07 06:04:22;;;;;;;18.13;12.48;;;;;;;4.99;68.25;98008.03;10512218;28;20494;-76
2021/11/07 06:09:44;;;;;;;23.08;14.70;;;;;;;5.07;67.65;98013.59;10511128;28;20414;-76
2021/11/07 06:15:06;;;;;;;21.20;14.35;;;;;;;5.20;67.35;98024.47;10496964;28;20040;-76
2021/11/07 06:20:28;;;;;;;21.00;14.93;;;;;;;5.60;67.28;98015.66;10503150;28;20086;-76
2021/11/07 06:25:49;;;;;;;18.27;13.95;;;;;;;5.70;66.68;98014.53;10519133;28;20052;-76
2021/11/07 06:31:12;;;;;;;18.58;13.77;;;;;;;6.82;65.35;98004.94;10519113;28;20044;-77
2021/11/07 06:36:34;;;;;;;21.00;14.75;;;;;;;6.35;64.65;98016.06;10505001;28;20113;-76
2021/11/07 06:41:55;;;;;;;18.75;13.07;;;;;;;5.95;65.77;97991.78;10504222;28;20044;-77
2021/11/07 06:47:16;;;;;;;22.95;15.07;;;;;;;5.69;65.89;98002.00;10517954;28;20494;-76
2021/11/07 06:52:39;;;;;;;17.63;12.93;;;;;;;6.31;65.84;97997.06;10517746;28;20260;-76
2021/11/07 06:58:01;;;;;;;19.10;14.93;;;;;;;8.50;62.25;97980.53;10518261;28;20039;-76
2021/11/07 07:03:22;;;;;;;17.98;13.20;;;;;;;6.94;62.62;97966.41;10521171;28;20048;-80
2021/11/07 07:08:47;;;;;;;15.93;13.43;;;;;;;6.23;63.50;97946.44;10503472;28;20470;-79
2021/11/07 07:14:21;;;;;;;16.85;12.52;;;;;;;6.02;63.80;97936.38;10517447;28;20036;-77
2021/11/07 07:36:09;;;;;;;13.13;11.73;;;;;;;16.16;50.03;97937.75;10517800;28;20071;-79
2021/11/07 07:41:31;;;;;;;12.32;11.02;;;;;;;15.94;47.02;97912.06;10502925;28;20052;-76
2021/11/07 07:46:55;;;;;;;12.13;10.25;;;;;;;19.59;38.13;97909.06;10502448;28;20399;-75
2021/11/07 07:52:21;;;;;;;10.05;9.05;;;;;;;22.00;36.21;97917.75;10501035;28;20097;-78
2021/11/07 07:57:42;;;;;;;11.23;9.65;;;;;;;24.77;28.15;97929.00;10516077;28;20048;-76
2021/11/07 08:03:03;;;;;;;10.00;8.75;;;;;;;23.84;27.68;97910.38;10514324;28;20066;-79
2021/11/07 08:08:25;;;;;;;9.63;8.07;;;;;;;23.83;25.27;97923.16;10514250;28;20055;-77
2021/11/07 08:13:50;;;;;;;8.60;7.70;;;;;;;19.24;29.48;97895.78;10527972;28;20119;-76
2021/11/07 08:19:12;;;;;;;8.68;7.75;;;;;;;19.54;30.01;97873.47;10514332;28;20133;-77
2021/11/07 08:24:35;;;;;;;8.73;7.70;;;;;;;22.40;26.95;97879.63;10514101;28;20055;-77
2021/11/07 08:29:57;;;;;;;7.75;7.05;;;;;;;22.39;26.74;97873.22;10514057;28;20062;-78
2021/11/07 08:35:19;;;;;;;8.23;7.43;;;;;;;19.29;28.61;97871.16;10513687;28;20044;-79
2021/11/07 08:40:45;;;;;;;7.75;6.93;;;;;;;19.73;28.78;97863.50;10512642;28;20063;-79
2021/11/07 09:08:33;;;;;;;6.90;6.20;;;;;;;27.03;20.90;97862.59;10512748;28;20044;-81
2021/11/07 09:13:54;;;;;;;7.90;6.30;;;;;;;22.96;22.14;97857.41;10511980;28;20036;-81
2021/11/07 09:19:21;;;;;;;7.70;6.88;;;;;;;20.67;25.31;97838.13;10511585;28;20035;-82
2021/11/07 09:24:50;;;;;;;6.82;5.88;;;;;;;18.84;26.36;97825.03;10512794;28;20044;-80
2021/11/07 09:30:21;;;;;;;7.22;6.53;;;;;;;15.48;29.69;97826.75;10513061;28;20071;-81
2021/11/07 09:47:22;;;;;;;9.35;7.55;;;;;;;10.50;39.38;97812.75;10665755;23;20069;-82
2021/11/07 09:52:48;;;;;;;11.27;8.30;;;;;;;9.82;41.56;97822.59;10837300;23;20125;-82
2021/11/07 09:58:14;;;;;;;10.32;7.68;;;;;;;9.41;42.48;97822.44;10282699;28;20043;-81
2021/11/07 10:03:40;;;;;;;9.60;7.15;;;;;;;9.25;44.01;97808.06;10278182;28;20047;-83
2021/11/07 10:09:03;;;;;;;10.82;7.45;;;;;;;8.99;44.38;97806.13;10270043;29;20023;-81
2021/11/07 10:14:25;;;;;;;12.50;7.90;;;;;;;8.69;44.91;97785.13;10422649;23;20103;-83
2021/11/07 10:20:40;;;;;;;12.10;7.95;;;;;;;8.69;47.90;97774.72;10217502;29;20060;-75
2021/11/07 10:26:15;;;;;;;12.32;8.65;;;;;;;8.67;47.71;97762.69;10212955;29;20055;-76
2021/11/07 10:31:46;;;;;;;13.02;8.68;;;;;;;8.64;48.71;97767.38;10187747;29;20055;-76
2021/11/07 10:54:24;;;;;;;11.15;8.23;;;;;;;8.83;50.98;97702.66;10182195;29;20267;-76
2021/11/07 11:00:24;;;;;;;12.80;8.63;;;;;;;8.86;50.77;97710.56;10187203;29;20134;-79
2021/11/07 11:06:16;;;;;;;12.32;8.57;;;;;;;8.89;51.34;97692.72;10185888;29;20436;-81
2021/11/07 11:11:51;;;;;;;13.35;8.70;;;;;;;9.17;51.45;97733.03;10182740;29;20056;-78
2021/11/07 11:17:31;;;;;;;11.40;7.78;;;;;;;9.18;51.90;97703.13;10226881;29;20402;-79
2021/11/07 11:23:14;;;;;;;10.80;7.25;;;;;;;9.18;52.51;97683.63;10219803;29;20046;-79
2021/11/07 11:29:00;;;;;;;10.68;7.80;;;;;;;9.37;52.00;97666.16;10247617;29;20470;-76
2021/11/07 11:34:27;;;;;;;8.52;6.43;;;;;;;9.33;52.44;97663.81;10228823;29;20066;-78
2021/11/07 11:39:57;;;;;;;10.25;6.85;;;;;;;9.21;52.74;97653.88;10216013;29;20046;-81
2021/11/07 11:45:31;;;;;;;10.65;6.85;;;;;;;8.94;53.17;97643.63;10264843;28;20098;-80
2021/11/07 11:56:45;;;;;;;9.88;6.90;;;;;;;8.72;53.68;97612.13;10261876;28;20111;-79
2021/11/07 12:02:26;;;;;;;9.57;5.80;;;;;;;8.70;54.38;97594.56;10232887;28;20106;-76
2021/11/07 12:08:07;;;;;;;8.90;5.88;;;;;;;8.88;54.28;97613.31;10220065;28;20123;-78
2021/11/07 12:13:55;;;;;;;10.20;6.35;;;;;;;8.81;54.25;97619.75;10253074;28;20051;-76
2021/11/07 12:19:18;;;;;;;7.63;5.47;;;;;;;8.71;54.71;97630.16;10193493;29;20475;-79
2021/11/07 12:24:48;;;;;;;9.02;5.68;;;;;;;8.69;54.80;97604.97;10222181;29;20047;-79
2021/11/07 12:30:15;;;;;;;8.57;6.03;;;;;;;8.65;55.60;97613.00;10242533;29;20517;-78
2021/11/07 12:35:51;;;;;;;7.45;5.72;;;;;;;8.64;55.88;97603.19;10216700;29;20055;-78
2021/11/07 12:41:12;;;;;;;7.55;5.85;;;;;;;8.73;55.83;97596.91;10212922;29;20043;-78
2021/11/07 12:47:04;;;;;;;7.75;5.60;;;;;;;8.76;55.78;97620.03;10236016;29;20039;-77
2021/11/07 12:54:07;;;;;;;10.27;6.30;;;;;;;8.90;55.93;97615.50;10197805;29;20125;-81
2021/11/07 12:59:30;;;;;;;8.05;4.97;;;;;;;9.00;56.09;97635.72;10251146;28;20378;-82
2021/11/07 13:05:30;;;;;;;9.13;5.57;;;;;;;9.02;56.28;97637.91;10237898;28;20060;-83
2021/11/07 13:19:40;;;;;;;8.10;5.32;;;;;;;9.09;56.21;97631.47;12034805;24;20034;31
2021/11/07 13:24:55;;;;;;;7.97;5.43;;;;;;;8.97;56.12;97619.44;9909787;30;20050;-81
2021/11/07 13:30:20;;;;;;;;;;;;;;;9.07;56.21;97609.00;9895434;29;20050;-80
2021/11/07 13:35:41;;;;;;;8.75;5.60;;;;;;;9.21;56.31;97593.31;9914442;29;20020;-80
2021/11/07 13:41:21;;;;;;;7.97;5.80;;;;;;;9.30;56.13;97589.06;9924039;30;20054;-79
2021/11/07 13:47:05;;;;;;;8.95;5.68;;;;;;;9.43;55.95;97591.34;9885716;29;20051;-80
2021/11/07 13:52:33;;;;;;;8.15;5.70;;;;;;;9.35;55.67;97611.00;9896349;30;20051;-79
2021/11/07 13:57:55;;;;;;;9.25;6.20;;;;;;;9.07;56.17;97595.09;9901300;29;20051;-80
2021/11/07 14:03:19;;;;;;;9.32;6.78;;;;;;;8.81;56.85;97591.91;9925487;29;20079;-80
2021/11/07 14:08:50;;;;;;;8.60;6.40;;;;;;;8.60;57.35;97575.09;9917755;29;20051;-77
2021/11/07 14:14:13;;;;;;;9.13;6.18;;;;;;;8.37;57.48;97585.91;9905302;30;20051;-77
2021/11/07 14:19:35;;;;;;;9.45;6.25;;;;;;;8.18;58.36;97590.09;9906193;29;20447;-75
2021/11/07 14:25:08;;;;;;;7.68;5.72;;;;;;;8.09;58.67;97576.91;9931789;29;20475;-76
2021/11/07 14:30:39;;;;;;;6.97;4.65;;;;;;;8.08;59.57;97564.31;9907065;29;20051;-78
2021/11/07 14:36:19;;;;;;;7.60;5.47;;;;;;;7.96;59.61;97600.28;9895565;30;20047;-81
2021/11/07 14:42:43;;;;;;;8.43;5.45;;;;;;;7.89;60.44;97559.44;9961918;29;20066;-82
2021/11/07 14:59:52;;;;;;;;;;;;;;;7.96;60.97;97591.94;9952899;29;20070;-82
2021/11/07 15:05:26;;;;;;;9.20;6.53;;;;;;;7.93;60.75;97584.06;9939631;29;19925;-82
2021/11/07 15:11:14;;;;;;;8.10;5.88;;;;;;;7.89;61.03;97576.13;9965835;29;20050;-81
2021/11/07 15:16:49;;;;;;;9.10;6.05;;;;;;;7.86;61.01;97580.06;9929052;30;20526;-82
2021/11/07 15:22:21;;;;;;;8.00;5.72;;;;;;;7.81;61.75;97586.63;9919220;29;20059;-81
2021/11/07 15:27:42;;;;;;;8.25;5.88;;;;;;;7.78;61.00;97560.00;9952846;29;20046;-81
2021/11/07 15:33:16;;;;;;;8.23;6.15;;;;;;;7.71;61.77;97566.41;10069997;24;20055;-81
2021/11/07 15:38:37;;;;;;;8.10;5.65;;;;;;;7.76;61.81;97573.75;9967539;29;20054;-82
2021/11/07 15:44:07;;;;;;;9.30;5.32;;;;;;;7.81;61.62;97578.28;9948216;29;20054;-82
2021/11/07 16:01:52;;;;;;;4.50;2.70;;;;;;;7.87;61.77;97597.47;9944804;29;20058;-79
2021/11/07 16:12:44;;;;;;;4.53;3.00;;;;;;;7.79;62.55;97599.63;9897853;29;20058;-78
2021/11/07 16:18:06;;;;;;;4.13;2.92;;;;;;;7.75;62.53;97608.41;9876522;29;20047;-77
2021/11/07 16:23:27;;;;;;;3.60;2.47;;;;;;;7.73;62.82;97602.72;9872683;30;20389;-78
2021/11/07 16:28:49;;;;;;;5.65;2.67;;;;;;;7.70;63.08;97631.63;9884964;30;20047;-78
2021/11/07 16:34:13;;;;;;;4.85;2.92;;;;;;;7.69;63.50;97619.78;9884672;30;20047;-78
2021/11/07 16:39:40;;;;;;;5.80;3.00;;;;;;;7.71;63.18;97633.84;9885007;29;20062;-78
2021/11/07 16:45:02;;;;;;;5.22;3.20;;;;;;;7.73;63.26;97631.22;9885635;30;20058;-79
2021/11/07 16:50:29;;;;;;;3.35;2.55;;;;;;;7.75;63.22;97636.94;9884222;30;20051;-78
2021/11/07 16:55:53;;;;;;;4.25;2.55;;;;;;;7.73;63.64;97634.00;9884998;29;20065;-78
2021/11/07 17:01:21;;;;;;;;;;;;;;;7.67;64.49;97639.09;9884624;30;20408;-78
2021/11/07 17:06:48;;;;;;;3.72;2.55;;;;;;;7.65;63.95;97644.50;9896758;30;19929;-78
2021/11/07 17:12:21;;;;;;;4.40;2.88;;;;;;;7.56;63.73;97631.28;9884760;30;20051;-77
2021/11/07 17:17:47;;;;;;;5.70;3.80;;;;;;;7.50;64.92;97622.47;9885793;30;20423;-77
2021/11/07 17:23:44;;;;;;;3.83;2.83;;;;;;;7.41;64.55;97621.13;9884298;30;20411;-75
2021/11/07 17:29:07;;;;;;;3.20;2.35;;;;;;;7.40;65.40;97616.88;9905916;29;20405;-81
2021/11/07 17:35:15;;;;;;;4.30;2.88;;;;;;;7.37;65.60;97620.09;9909663;30;20506;-81
2021/11/07 17:57:36;;;;;;;4.35;2.80;;;;;;;7.29;66.20;97638.88;10464915;28;20056;-81
2021/11/07 18:03:02;;;;;;;4.65;3.28;;;;;;;7.30;66.43;97634.78;10506869;28;20073;-82
2021/11/07 18:08:25;;;;;;;6.07;3.60;;;;;;;7.34;66.42;97654.56;10519487;28;20097;-82
2021/11/07 18:13:47;;;;;;;6.40;4.20;;;;;;;7.18;66.83;97649.19;10532442;28;20582;-80
2021/11/07 18:19:08;;;;;;;17.27;11.00;;;;;;;7.02;67.06;97647.91;10518970;28;20063;-80
2021/11/07 18:24:32;;;;;;;7.88;3.95;;;;;;;6.94;67.45;97649.31;10517821;28;20044;-80
2021/11/07 18:29:59;;;;;;;5.07;3.80;;;;;;;6.85;67.65;97654.22;10518855;28;20044;-83
2021/11/07 18:35:20;;;;;;;5.47;3.70;;;;;;;6.86;68.26;97652.91;10525052;28;20475;-89
2021/11/07 18:40:41;;;;;;;7.35;4.43;;;;;;;6.97;68.32;97653.72;10524702;28;20037;-80
2021/11/07 18:46:02;;;;;;;6.03;4.47;;;;;;;6.96;68.61;97655.03;10531566;28;20040;-82
2021/11/07 18:51:24;;;;;;;5.75;4.22;;;;;;;6.92;68.54;97654.69;10516566;28;20131;-81
2021/11/07 18:56:45;;;;;;;7.38;5.15;;;;;;;6.74;68.89;97654.69;10530468;28;20051;-74
2021/11/07 19:02:06;;;;;;;6.00;4.82;;;;;;;6.60;69.24;97657.06;10480585;28;20032;-74
2021/11/07 19:07:28;;;;;;;7.82;5.03;;;;;;;6.57;69.56;97652.69;10474393;28;20051;-75
2021/11/07 19:12:50;;;;;;;6.95;4.78;;;;;;;6.53;69.58;97657.13;10474214;28;20044;-76
2021/11/07 19:18:12;;;;;;;7.45;4.88;;;;;;;6.52;69.92;97673.03;10460497;28;20554;-75
2021/11/07 19:23:33;;;;;;;6.82;4.80;;;;;;;6.44;70.05;97657.78;10487563;28;20040;-76
2021/11/07 19:28:55;;;;;;;6.63;5.40;;;;;;;6.38;70.59;97671.16;10473581;28;20048;-77
2021/11/07 19:34:21;;;;;;;8.13;5.53;;;;;;;6.30;70.67;97682.31;10473393;28;20097;-73
2021/11/07 19:39:43;;;;;;;7.70;5.43;;;;;;;6.25;71.10;97699.91;10459757;28;20048;-75
2021/11/07 19:45:06;;;;;;;8.75;5.63;;;;;;;6.20;71.28;97700.88;10459036;28;20490;-75
2021/11/07 19:50:31;;;;;;;6.68;5.03;;;;;;;6.26;71.26;97702.09;10486926;28;20062;-74
2021/11/07 19:55:53;;;;;;;7.63;5.32;;;;;;;6.35;71.46;97714.59;10473114;28;20499;-74
2021/11/07 20:12:11;;;;;;;7.75;5.70;;;;;;;6.69;71.07;97730.59;10498832;28;20052;-77
2021/11/07 20:17:32;;;;;;;8.20;6.18;;;;;;;6.76;71.19;97729.78;10457320;28;20052;-76
2021/11/07 20:22:54;;;;;;;8.88;5.38;;;;;;;6.79;70.53;97736.97;10485373;28;20408;-76
2021/11/07 20:28:17;;;;;;;7.72;5.68;;;;;;;6.71;70.85;97741.84;10456876;28;20044;-74
2021/11/07 20:33:39;;;;;;;6.47;5.55;;;;;;;6.64;71.21;97734.31;10477326;28;20040;-76
2021/11/07 20:39:00;;;;;;;8.50;5.90;;;;;;;6.60;71.18;97731.97;10484599;28;20045;-76
2021/11/07 20:44:30;;;;;;;7.43;5.70;;;;;;;6.58;71.10;97739.38;10470592;28;20040;-75
2021/11/07 21:01:21;;;;;;;8.38;5.53;;;;;;;6.19;72.26;97735.44;10498583;28;20052;-79
2021/11/07 21:06:49;;;;;;;8.50;5.50;;;;;;;6.13;72.16;97734.94;10486690;28;20064;-81
2021/11/07 21:23:48;;;;;;;8.23;5.50;;;;;;;6.01;72.99;97742.94;10484755;28;20040;-77
2021/11/07 21:29:09;;;;;;;7.60;5.38;;;;;;;6.07;72.92;97748.25;10476211;28;20403;-76
2021/11/07 21:34:42;;;;;;;7.38;5.53;;;;;;;6.03;72.96;97741.09;10483029;28;20399;-75
2021/11/07 21:40:11;;;;;;;9.23;5.68;;;;;;;6.00;73.10;97736.69;10471012;28;20060;-76
2021/11/07 21:45:34;;;;;;;6.68;5.13;;;;;;;6.01;73.15;97729.09;10456991;28;20053;-75
2021/11/07 21:50:55;;;;;;;6.43;4.88;;;;;;;6.11;73.02;97732.00;10494507;28;20053;-75
2021/11/07 21:56:17;;;;;;;5.80;4.40;;;;;;;6.22;73.23;97732.28;10424333;28;20061;-75
2021/11/07 22:01:38;;;;;;;7.10;4.13;;;;;;;6.39;72.84;97733.63;10432832;28;20052;-76
2021/11/07 22:06:59;;;;;;;6.72;4.68;;;;;;;6.41;72.41;97731.03;10448441;28;20040;-75
2021/11/07 22:12:20;;;;;;;7.55;4.90;;;;;;;6.34;72.67;97740.13;10462580;28;20052;-77
2021/11/07 22:23:27;;;;;;;6.97;4.53;;;;;;;6.07;72.80;97745.50;10445185;28;20807;-76
2021/11/07 22:29:08;;;;;;;5.85;4.25;;;;;;;5.99;73.22;97749.06;10452616;28;20053;-76
2021/11/07 22:34:33;;;;;;;7.05;4.88;;;;;;;5.95;73.21;97751.47;10483281;28;20483;-75
2021/11/07 22:39:55;;;;;;;8.93;4.65;;;;;;;5.92;73.24;97740.78;10490043;28;20105;-75
2021/11/07 22:45:19;;;;;;;9.18;4.22;;;;;;;5.92;73.25;97744.31;10489324;28;20063;-75
2021/11/07 22:50:49;;;;;;;7.47;4.47;;;;;;;5.83;73.37;97744.16;10462935;28;20556;-76
2021/11/07 23:07:29;;;;;;;6.35;3.90;;;;;;;5.73;73.97;97763.41;10486362;28;20049;-75
2021/11/07 23:12:50;;;;;;;5.05;2.75;;;;;;;5.72;73.59;97767.47;10474957;28;20055;-75
2021/11/07 23:18:11;;;;;;;5.82;2.38;;;;;;;5.80;73.41;97770.94;10460759;28;20052;-75
2021/11/07 23:23:33;;;;;;;5.28;2.38;;;;;;;5.86;73.42;97777.00;10474138;28;20040;-76
2021/11/07 23:28:56;;;;;;;6.63;2.00;;;;;;;5.90;73.30;97779.38;10473581;28;20152;-76
2021/11/07 23:34:21;;;;;;;4.63;2.40;;;;;;;5.92;73.07;97791.41;10474148;28;20112;-75
2021/11/07 23:39:43;;;;;;;5.90;2.28;;;;;;;5.92;73.10;97785.84;10473737;28;20531;-75
2021/11/07 23:45:05;;;;;;;4.05;2.25;;;;;;;5.95;73.06;97787.50;10486761;28;20041;-74
2021/11/07 23:50:49;;;;;;;3.72;2.38;;;;;;;5.97;73.07;97787.66;10486368;28;20052;-73
2021/11/07 23:56:10;;;;;;;5.20;2.22;;;;;;;5.99;72.95;97779.53;10475768;28;20056;-75
